Time;durP1;ratioP1;P1;durP2;ratioP2;P2;SDS_P1;SDS_P2;PMS_P1;PMS_P2;Temp;Humidity;BMP_temperature;BMP_pressure;BME280_temperature;BME280_humidity;BME280_pressure;Samples;Min_cycle;Max_cycle;Signal;HPM_P1;HPM_P2
2023/09/27 00:01:44;;;;;;;14.50;10.65;;;;;;;;;;5012505;28;20038;-52
2023/09/27 00:04:10;;;;;;;14.48;10.68;;;;;;;;;;5011649;28;20029;-54
2023/09/27 00:06:36;;;;;;;11.50;9.18;;;;;;;;;;5011654;28;20552;-55
2023/09/27 00:09:02;;;;;;;15.15;10.57;;;;;;;;;;5011026;28;20029;-52
2023/09/27 00:11:28;;;;;;;15.23;10.70;;;;;;;;;;5014899;28;20094;-53
2023/09/27 00:13:54;;;;;;;13.60;10.40;;;;;;;;;;5013894;28;20497;-52
2023/09/27 00:16:20;;;;;;;14.65;10.43;;;;;;;;;;5012846;28;20032;-54
2023/09/27 00:18:46;;;;;;;13.95;10.02;;;;;;;;;;5025962;28;20059;-53
2023/09/27 00:21:12;;;;;;;11.73;9.00;;;;;;;;;;5012674;28;20041;-53
2023/09/27 00:23:38;;;;;;;12.95;10.20;;;;;;;;;;5013821;28;20040;-53
2023/09/27 00:26:04;;;;;;;14.15;10.40;;;;;;;;;;5016684;28;20772;-53
2023/09/27 00:28:30;;;;;;;13.32;10.23;;;;;;;;;;5013989;28;20049;-53
2023/09/27 00:30:56;;;;;;;9.68;7.50;;;;;;;;;;5014809;28;20670;-53
2023/09/27 00:33:23;;;;;;;12.43;9.05;;;;;;;;;;5008612;28;20045;-52
2023/09/27 00:35:49;;;;;;;14.20;10.18;;;;;;;;;;5010347;28;20038;-53
2023/09/27 00:38:15;;;;;;;14.00;9.98;;;;;;;;;;5010236;28;20037;-52
2023/09/27 00:40:46;;;;;;;11.68;9.25;;;;;;;;;;5014861;28;20041;-52
2023/09/27 00:43:24;;;;;;;12.13;8.25;;;;;;;;;;4990678;28;20147;-53
2023/09/27 00:45:50;;;;;;;16.05;11.00;;;;;;;;;;5000851;28;20033;-53
2023/09/27 00:48:16;;;;;;;13.70;10.35;;;;;;;;;;4995701;28;20067;-53
2023/09/27 00:50:42;;;;;;;15.80;10.90;;;;;;;;;;4996110;28;20862;-52
2023/09/27 00:53:08;;;;;;;22.15;11.15;;;;;;;;;;5000743;28;20092;-52
2023/09/27 00:55:34;;;;;;;17.08;11.52;;;;;;;;;;4998200;28;20818;-51
2023/09/27 00:58:00;;;;;;;13.32;9.68;;;;;;;;;;5001226;28;20034;-52
2023/09/27 01:00:26;;;;;;;11.68;8.80;;;;;;;;;;5018312;28;20048;-53
2023/09/27 01:02:52;;;;;;;11.77;9.30;;;;;;;;;;5015083;28;20033;-54
2023/09/27 01:05:19;;;;;;;12.93;8.98;;;;;;;;;;5015368;28;20416;-53
2023/09/27 01:07:45;;;;;;;13.77;9.90;;;;;;;;;;5017392;28;20037;-52
2023/09/27 01:10:11;;;;;;;15.68;10.30;;;;;;;;;;5015641;28;20685;-53
2023/09/27 01:12:37;;;;;;;13.80;10.30;;;;;;;;;;5016028;28;20195;-52
2023/09/27 01:15:04;;;;;;;15.35;11.05;;;;;;;;;;5015991;28;20501;-52
2023/09/27 01:17:30;;;;;;;13.90;9.88;;;;;;;;;;4990808;28;20694;-53
2023/09/27 01:19:55;;;;;;;19.85;10.57;;;;;;;;;;5003678;28;20049;-54
2023/09/27 01:22:22;;;;;;;14.43;10.68;;;;;;;;;;5001928;28;20038;-54
2023/09/27 01:24:49;;;;;;;13.38;9.90;;;;;;;;;;5001370;28;20041;-54
2023/09/27 01:27:15;;;;;;;16.08;10.10;;;;;;;;;;4997980;28;20041;-53
2023/09/27 01:29:41;;;;;;;12.75;9.27;;;;;;;;;;5000805;28;20037;-55
2023/09/27 01:32:07;;;;;;;16.67;10.65;;;;;;;;;;5001542;28;20077;-52
2023/09/27 01:34:33;;;;;;;16.15;9.98;;;;;;;;;;4998595;28;20073;-53
2023/09/27 01:36:59;;;;;;;14.55;10.57;;;;;;;;;;4999272;28;20038;-54
2023/09/27 01:39:25;;;;;;;14.40;10.85;;;;;;;;;;5001937;28;20559;-52
2023/09/27 01:41:51;;;;;;;13.98;10.77;;;;;;;;;;4996441;28;20712;-53
2023/09/27 01:44:18;;;;;;;14.25;11.05;;;;;;;;;;4992738;28;20034;-52
2023/09/27 01:46:44;;;;;;;14.68;10.00;;;;;;;;;;4997573;28;20030;-53
2023/09/27 01:49:10;;;;;;;13.82;10.88;;;;;;;;;;4992355;28;20579;-53
2023/09/27 01:51:36;;;;;;;15.88;10.18;;;;;;;;;;4994080;28;20026;-53
2023/09/27 01:54:02;;;;;;;13.95;9.88;;;;;;;;;;4996623;28;20182;-51
2023/09/27 01:56:28;;;;;;;15.88;10.63;;;;;;;;;;4999470;28;20044;-52
2023/09/27 01:58:54;;;;;;;13.57;10.52;;;;;;;;;;5014263;28;20966;-54
2023/09/27 02:01:20;;;;;;;12.82;10.00;;;;;;;;;;5014088;28;20082;-52
2023/09/27 02:03:46;;;;;;;16.52;10.48;;;;;;;;;;5001366;28;20366;-51
2023/09/27 02:06:12;;;;;;;17.30;10.20;;;;;;;;;;4989579;28;20034;-57
2023/09/27 02:08:38;;;;;;;15.90;10.63;;;;;;;;;;4995747;28;20108;-53
2023/09/27 02:11:04;;;;;;;12.73;10.60;;;;;;;;;;4992473;28;20042;-54
2023/09/27 02:13:30;;;;;;;16.75;10.95;;;;;;;;;;4996737;28;20041;-53
2023/09/27 02:15:56;;;;;;;14.82;10.95;;;;;;;;;;4994365;28;20060;-53
2023/09/27 02:18:22;;;;;;;13.50;11.45;;;;;;;;;;4992669;28;20048;-54
2023/09/27 02:20:49;;;;;;;15.65;11.57;;;;;;;;;;4994504;28;20164;-54
2023/09/27 02:23:15;;;;;;;16.15;11.65;;;;;;;;;;5012286;28;20674;-54
2023/09/27 02:25:41;;;;;;;14.00;10.68;;;;;;;;;;5010204;28;20534;-54
2023/09/27 02:28:07;;;;;;;16.23;11.65;;;;;;;;;;4993238;28;20469;-53
2023/09/27 02:30:33;;;;;;;14.43;11.63;;;;;;;;;;5012938;28;20048;-51
2023/09/27 02:32:59;;;;;;;13.57;11.30;;;;;;;;;;4997176;28;20375;-52
2023/09/27 02:35:25;;;;;;;12.98;10.68;;;;;;;;;;4994331;28;20041;-53
2023/09/27 02:37:51;;;;;;;13.40;10.90;;;;;;;;;;4993906;28;20108;-54
2023/09/27 02:40:17;;;;;;;15.48;11.75;;;;;;;;;;4994410;28;20136;-54
2023/09/27 02:42:44;;;;;;;17.17;11.65;;;;;;;;;;4993286;28;20026;-53
2023/09/27 02:45:11;;;;;;;17.48;12.10;;;;;;;;;;4996267;28;20122;-52
2023/09/27 02:47:37;;;;;;;17.83;11.75;;;;;;;;;;4993469;28;20034;-52
2023/09/27 02:50:05;;;;;;;23.67;13.15;;;;;;;;;;4999203;28;20042;-53
2023/09/27 02:52:31;;;;;;;22.27;13.65;;;;;;;;;;4991902;28;20044;-53
2023/09/27 02:54:57;;;;;;;20.67;14.18;;;;;;;;;;4998307;28;20483;-52
2023/09/27 02:57:23;;;;;;;23.48;13.65;;;;;;;;;;4991682;28;20040;-52
2023/09/27 02:59:49;;;;;;;24.35;14.98;;;;;;;;;;4991934;28;20046;-53
2023/09/27 03:02:16;;;;;;;22.70;14.95;;;;;;;;;;4989202;28;20038;-54
2023/09/27 03:04:42;;;;;;;21.00;15.25;;;;;;;;;;4996050;28;20147;-54
2023/09/27 03:07:08;;;;;;;21.83;14.68;;;;;;;;;;4990736;28;20124;-54
2023/09/27 03:09:36;;;;;;;23.92;14.73;;;;;;;;;;4995003;28;20034;-53
2023/09/27 03:12:03;;;;;;;20.58;13.23;;;;;;;;;;4992266;28;20121;-53
2023/09/27 03:14:29;;;;;;;20.77;14.07;;;;;;;;;;4990985;28;20641;-52
2023/09/27 03:16:55;;;;;;;18.33;13.93;;;;;;;;;;4992835;28;20048;-53
2023/09/27 03:19:24;;;;;;;17.73;12.93;;;;;;;;;;4992736;28;20045;-53
2023/09/27 03:21:51;;;;;;;19.85;13.45;;;;;;;;;;4993385;28;20370;-53
2023/09/27 03:24:17;;;;;;;20.60;14.40;;;;;;;;;;4990970;28;20041;-54
2023/09/27 03:26:43;;;;;;;19.33;13.15;;;;;;;;;;4994253;28;20509;-54
2023/09/27 03:29:09;;;;;;;19.50;13.77;;;;;;;;;;4990911;28;20044;-53
2023/09/27 03:31:35;;;;;;;18.58;13.85;;;;;;;;;;4992932;28;20045;-52
2023/09/27 03:34:01;;;;;;;20.40;14.93;;;;;;;;;;4991529;28;20050;-52
2023/09/27 03:36:28;;;;;;;20.48;13.00;;;;;;;;;;4981805;28;20312;-50
2023/09/27 03:38:54;;;;;;;18.55;13.15;;;;;;;;;;4992970;28;20061;-52
2023/09/27 03:41:20;;;;;;;19.27;12.80;;;;;;;;;;4993106;28;20060;-52
2023/09/27 03:43:47;;;;;;;18.55;12.48;;;;;;;;;;4994398;28;20520;-53
2023/09/27 03:46:13;;;;;;;16.90;12.27;;;;;;;;;;4993026;28;20685;-53
2023/09/27 03:48:39;;;;;;;15.75;13.00;;;;;;;;;;4995434;28;20176;-53
2023/09/27 03:51:05;;;;;;;18.05;12.30;;;;;;;;;;4997320;28;20095;-53
2023/09/27 03:53:32;;;;;;;15.82;12.63;;;;;;;;;;4996870;28;20057;-54
2023/09/27 03:55:58;;;;;;;16.00;12.55;;;;;;;;;;4997564;28;20128;-52
2023/09/27 03:58:24;;;;;;;20.33;12.85;;;;;;;;;;4992427;28;20044;-54
2023/09/27 04:00:50;;;;;;;21.27;11.25;;;;;;;;;;4996986;28;20050;-52
2023/09/27 04:03:16;;;;;;;15.30;11.40;;;;;;;;;;4990570;28;20038;-53
2023/09/27 04:05:42;;;;;;;17.42;11.80;;;;;;;;;;4991398;28;20640;-53
2023/09/27 04:08:11;;;;;;;13.85;10.63;;;;;;;;;;4996373;28;20034;-54
2023/09/27 04:10:37;;;;;;;14.40;10.98;;;;;;;;;;4991856;28;20095;-53
2023/09/27 04:13:04;;;;;;;15.45;11.52;;;;;;;;;;4989876;28;20041;-53
2023/09/27 04:15:30;;;;;;;16.75;11.52;;;;;;;;;;4988402;28;20347;-54
2023/09/27 04:17:56;;;;;;;15.35;12.23;;;;;;;;;;4991155;28;20402;-52
2023/09/27 04:20:22;;;;;;;17.35;12.25;;;;;;;;;;5002003;28;20037;-53
2023/09/27 04:22:49;;;;;;;15.52;12.80;;;;;;;;;;5002219;28;20043;-53
2023/09/27 04:25:15;;;;;;;16.65;11.93;;;;;;;;;;5002033;28;20107;-53
2023/09/27 04:27:43;;;;;;;15.00;11.85;;;;;;;;;;5007265;28;20106;-54
2023/09/27 04:30:12;;;;;;;15.45;11.90;;;;;;;;;;5002890;28;20420;-52
2023/09/27 04:32:45;;;;;;;17.60;12.75;;;;;;;;;;4996494;28;20081;-49
2023/09/27 04:35:12;;;;;;;19.02;12.80;;;;;;;;;;4989328;28;20045;-52
2023/09/27 04:37:39;;;;;;;18.02;11.95;;;;;;;;;;4990958;28;20551;-47
2023/09/27 04:40:11;;;;;;;16.60;12.32;;;;;;;;;;4990115;28;20186;-49
2023/09/27 04:42:38;;;;;;;16.65;12.38;;;;;;;;;;5000623;28;20120;-52
2023/09/27 04:45:04;;;;;;;14.40;11.73;;;;;;;;;;5008224;28;20034;-50
2023/09/27 04:47:30;;;;;;;17.05;11.68;;;;;;;;;;5003798;28;20049;-51
2023/09/27 04:49:56;;;;;;;17.63;11.80;;;;;;;;;;5002221;28;20129;-52
2023/09/27 04:52:22;;;;;;;14.15;11.15;;;;;;;;;;5002089;28;20703;-54
2023/09/27 04:54:49;;;;;;;14.82;10.88;;;;;;;;;;5003575;28;20092;-53
2023/09/27 04:57:15;;;;;;;14.45;10.93;;;;;;;;;;5001951;28;20030;-53
2023/09/27 04:59:41;;;;;;;14.05;10.73;;;;;;;;;;5004063;28;20561;-55
2023/09/27 05:02:07;;;;;;;16.05;11.52;;;;;;;;;;4988609;28;20462;-54
2023/09/27 05:04:33;;;;;;;14.32;10.98;;;;;;;;;;4993138;28;20042;-54
2023/09/27 05:06:59;;;;;;;18.17;11.27;;;;;;;;;;4998889;28;20041;-54
2023/09/27 05:09:25;;;;;;;14.65;11.82;;;;;;;;;;5002345;28;20042;-55
2023/09/27 05:11:51;;;;;;;15.20;11.40;;;;;;;;;;5001667;28;20112;-52
2023/09/27 05:14:17;;;;;;;13.57;10.52;;;;;;;;;;4999689;28;20033;-55
2023/09/27 05:16:43;;;;;;;16.38;11.30;;;;;;;;;;5014519;28;20061;-55
2023/09/27 05:19:10;;;;;;;15.90;10.48;;;;;;;;;;5005385;28;20476;-53
2023/09/27 05:21:36;;;;;;;14.63;11.88;;;;;;;;;;4995045;28;20045;-53
2023/09/27 05:24:02;;;;;;;18.05;12.60;;;;;;;;;;5000640;28;20822;-53
2023/09/27 05:26:28;;;;;;;14.50;11.48;;;;;;;;;;5010996;28;20041;-54
2023/09/27 05:28:55;;;;;;;18.33;12.63;;;;;;;;;;5020693;28;20041;-51
2023/09/27 05:31:21;;;;;;;19.65;13.40;;;;;;;;;;5018702;28;20420;-53
2023/09/27 05:33:47;;;;;;;17.83;12.40;;;;;;;;;;5021578;28;20384;-52
2023/09/27 05:36:13;;;;;;;16.15;11.65;;;;;;;;;;5008402;28;20034;-53
2023/09/27 05:38:39;;;;;;;14.88;11.32;;;;;;;;;;5004509;28;20056;-53
2023/09/27 05:41:05;;;;;;;15.52;12.05;;;;;;;;;;5023971;28;20040;-52
2023/09/27 05:43:31;;;;;;;17.02;12.65;;;;;;;;;;5022868;28;20045;-52
2023/09/27 05:45:57;;;;;;;16.67;11.77;;;;;;;;;;5024382;28;20029;-53
2023/09/27 05:48:24;;;;;;;16.00;12.20;;;;;;;;;;4999636;28;20042;-52
2023/09/27 05:50:50;;;;;;;17.38;12.80;;;;;;;;;;5011252;28;20034;-54
2023/09/27 05:53:18;;;;;;;19.23;12.95;;;;;;;;;;5001614;28;20100;-54
2023/09/27 05:55:45;;;;;;;24.45;13.07;;;;;;;;;;5011350;28;20041;-52
2023/09/27 05:58:11;;;;;;;24.00;15.15;;;;;;;;;;5022161;28;20473;-53
2023/09/27 06:00:46;;;;;;;23.63;15.18;;;;;;;;;;5018716;28;20038;-53
2023/09/27 06:03:12;;;;;;;29.50;16.05;;;;;;;;;;4993447;28;20498;-52
2023/09/27 06:05:38;;;;;;;22.95;15.02;;;;;;;;;;5019481;28;20041;-53
2023/09/27 06:08:04;;;;;;;19.50;14.63;;;;;;;;;;5028699;28;20040;-50
2023/09/27 06:10:30;;;;;;;23.58;15.80;;;;;;;;;;5015842;28;20064;-50
2023/09/27 06:12:57;;;;;;;22.30;16.60;;;;;;;;;;4997423;28;20088;-50
2023/09/27 06:15:23;;;;;;;24.02;17.65;;;;;;;;;;5021993;28;20053;-50
2023/09/27 06:17:49;;;;;;;27.27;19.05;;;;;;;;;;5033767;28;20060;-52
2023/09/27 06:20:22;;;;;;;29.88;20.70;;;;;;;;;;5014294;28;20469;-51
2023/09/27 06:22:49;;;;;;;28.48;21.05;;;;;;;;;;4999027;28;20034;-50
2023/09/27 06:25:18;;;;;;;30.10;20.33;;;;;;;;;;4989310;28;20116;-53
2023/09/27 06:27:44;;;;;;;26.85;19.60;;;;;;;;;;4998031;28;20030;-51
2023/09/27 06:30:11;;;;;;;32.47;22.40;;;;;;;;;;5002744;28;20041;-49
2023/09/27 06:32:37;;;;;;;29.23;21.20;;;;;;;;;;4998448;28;20333;-47
2023/09/27 06:35:22;;;;;;;156.90;117.93;;;;;;;;;;5005354;28;20037;-53
2023/09/27 06:37:50;;;;;;;37.20;27.25;;;;;;;;;;5019751;28;20030;-48
2023/09/27 06:40:19;;;;;;;35.08;23.35;;;;;;;;;;5022527;28;20041;-51
2023/09/27 06:42:45;;;;;;;31.40;23.10;;;;;;;;;;5008740;28;20033;-52
2023/09/27 06:45:12;;;;;;;29.33;22.55;;;;;;;;;;5012237;28;20422;-52
2023/09/27 06:47:40;;;;;;;32.13;23.05;;;;;;;;;;5023490;28;20034;-51
2023/09/27 06:50:08;;;;;;;34.88;23.40;;;;;;;;;;5022519;28;20064;-51
2023/09/27 06:52:37;;;;;;;33.88;22.98;;;;;;;;;;5013183;28;20081;-50
2023/09/27 06:55:03;;;;;;;33.05;23.38;;;;;;;;;;5010672;28;20041;-50
2023/09/27 06:57:29;;;;;;;35.22;23.58;;;;;;;;;;5010996;28;20049;-50
2023/09/27 06:59:55;;;;;;;32.33;23.30;;;;;;;;;;5012901;28;20038;-51
2023/09/27 07:02:21;;;;;;;31.25;22.00;;;;;;;;;;5013005;28;21607;-51
2023/09/27 07:04:47;;;;;;;35.05;22.75;;;;;;;;;;5004402;28;20068;-51
2023/09/27 07:07:13;;;;;;;28.13;22.48;;;;;;;;;;5006573;28;20149;-50
2023/09/27 07:09:40;;;;;;;33.17;24.33;;;;;;;;;;5005721;28;20125;-49
2023/09/27 07:12:06;;;;;;;32.25;23.25;;;;;;;;;;5023309;28;20797;-52
2023/09/27 07:14:32;;;;;;;31.67;22.55;;;;;;;;;;5023433;28;20511;-52
2023/09/27 07:16:58;;;;;;;37.25;25.42;;;;;;;;;;5020734;28;20026;-47
2023/09/27 07:19:24;;;;;;;42.00;27.65;;;;;;;;;;5023649;28;20467;-52
2023/09/27 07:21:51;;;;;;;35.72;26.55;;;;;;;;;;5012391;28;20159;-53
2023/09/27 07:24:17;;;;;;;36.67;24.95;;;;;;;;;;5010624;28;20052;-53
2023/09/27 07:26:45;;;;;;;36.55;25.80;;;;;;;;;;5009673;28;20033;-50
2023/09/27 07:29:12;;;;;;;33.70;24.38;;;;;;;;;;5006520;28;20079;-52
2023/09/27 07:31:38;;;;;;;35.05;24.85;;;;;;;;;;5008578;28;20096;-51
2023/09/27 07:34:05;;;;;;;30.92;23.95;;;;;;;;;;5010977;28;20124;-52
2023/09/27 07:36:31;;;;;;;32.25;22.42;;;;;;;;;;5011964;28;20072;-49
2023/09/27 07:38:58;;;;;;;31.33;23.33;;;;;;;;;;5012473;28;20113;-52
2023/09/27 07:41:25;;;;;;;30.38;24.13;;;;;;;;;;5011735;28;20037;-50
2023/09/27 07:43:51;;;;;;;28.73;22.38;;;;;;;;;;5012269;28;20476;-52
2023/09/27 07:46:18;;;;;;;27.05;22.67;;;;;;;;;;5012696;28;20052;-49
2023/09/27 07:48:45;;;;;;;31.13;23.00;;;;;;;;;;5011704;28;20243;-51
2023/09/27 07:51:21;;;;;;;31.20;22.95;;;;;;;;;;5011428;28;20033;-52
2023/09/27 07:53:47;;;;;;;48.00;25.75;;;;;;;;;;5026929;28;20049;-48
2023/09/27 07:56:20;;;;;;;30.05;24.52;;;;;;;;;;5009375;28;20163;-51
2023/09/27 07:58:49;;;;;;;43.15;24.02;;;;;;;;;;5011645;28;20030;-54
2023/09/27 08:01:20;;;;;;;22.45;18.70;;;;;;;;;;5010297;28;20037;-53
2023/09/27 08:03:46;;;;;;;26.52;20.38;;;;;;;;;;5012491;28;20044;-53
2023/09/27 08:06:12;;;;;;;26.85;19.85;;;;;;;;;;5011202;28;20116;-50
2023/09/27 08:08:39;;;;;;;24.75;18.95;;;;;;;;;;5009203;28;20094;-49
2023/09/27 08:11:05;;;;;;;28.30;19.52;;;;;;;;;;5009471;28;20042;-52
2023/09/27 08:13:31;;;;;;;24.92;18.92;;;;;;;;;;4998377;28;20081;-52
2023/09/27 08:15:58;;;;;;;24.70;19.88;;;;;;;;;;4988786;28;20042;-52
2023/09/27 08:18:25;;;;;;;52.50;33.00;;;;;;;;;;4986830;28;20199;-53
2023/09/27 08:20:54;;;;;;;28.60;19.90;;;;;;;;;;5010039;28;20056;-53
2023/09/27 08:23:19;;;;;;;28.40;19.10;;;;;;;;;;5018058;28;20037;-52
2023/09/27 08:25:45;;;;;;;28.13;17.95;;;;;;;;;;5007603;28;20057;-52
2023/09/27 08:28:12;;;;;;;24.73;16.70;;;;;;;;;;5022103;28;20040;-52
2023/09/27 08:30:38;;;;;;;28.33;17.80;;;;;;;;;;5021741;28;20040;-52
2023/09/27 08:33:04;;;;;;;24.00;17.98;;;;;;;;;;5017917;28;20091;-52
2023/09/27 08:35:30;;;;;;;18.27;15.95;;;;;;;;;;5021696;28;20438;-52
2023/09/27 08:37:56;;;;;;;23.35;17.23;;;;;;;;;;5019392;28;20107;-51
2023/09/27 08:40:22;;;;;;;23.25;17.83;;;;;;;;;;5009990;28;20526;-52
2023/09/27 08:42:51;;;;;;;28.38;16.52;;;;;;;;;;5010145;28;20036;-53
2023/09/27 08:45:22;;;;;;;21.60;16.15;;;;;;;;;;5008386;28;20044;-51
2023/09/27 08:47:48;;;;;;;23.33;15.18;;;;;;;;;;5009778;28;20045;-52
2023/09/27 08:50:15;;;;;;;20.67;15.55;;;;;;;;;;5009341;28;20049;-51
2023/09/27 08:52:51;;;;;;;19.35;13.13;;;;;;;;;;5008361;28;20045;-53
2023/09/27 08:55:17;;;;;;;20.67;12.90;;;;;;;;;;5006525;28;20064;-51
2023/09/27 08:57:51;;;;;;;17.35;12.32;;;;;;;;;;5011309;28;20117;-53
2023/09/27 09:00:22;;;;;;;18.52;11.57;;;;;;;;;;5007511;28;20034;-54
2023/09/27 09:02:57;;;;;;;20.83;12.40;;;;;;;;;;5015609;28;20038;-52
2023/09/27 09:05:24;;;;;;;18.55;12.15;;;;;;;;;;5018785;28;20532;-52
2023/09/27 09:07:50;;;;;;;18.90;11.23;;;;;;;;;;5020674;28;20037;-53
2023/09/27 09:10:16;;;;;;;17.48;11.50;;;;;;;;;;5019255;28;20049;-54
2023/09/27 09:12:43;;;;;;;15.30;10.15;;;;;;;;;;5017550;28;20132;-54
2023/09/27 09:15:15;;;;;;;14.43;10.55;;;;;;;;;;5019384;28;20030;-52
2023/09/27 09:17:47;;;;;;;14.55;10.40;;;;;;;;;;5009829;28;20295;-52
2023/09/27 09:20:21;;;;;;;265.00;195.40;;;;;;;;;;5013456;28;20424;-52
2023/09/27 09:22:50;;;;;;;17.65;12.30;;;;;;;;;;5025492;28;20057;-52
2023/09/27 09:25:16;;;;;;;16.38;10.75;;;;;;;;;;5024087;28;20029;-53
2023/09/27 09:27:43;;;;;;;14.90;10.38;;;;;;;;;;5024147;28;20397;-53
2023/09/27 09:30:13;;;;;;;13.88;9.60;;;;;;;;;;5024410;28;20495;-54
2023/09/27 09:32:51;;;;;;;18.60;9.73;;;;;;;;;;5025276;28;20535;-55
2023/09/27 09:35:30;;;;;;;15.95;9.25;;;;;;;;;;5024731;28;20731;-54
2023/09/27 09:37:56;;;;;;;16.10;9.48;;;;;;;;;;5023714;28;20045;-54
2023/09/27 09:40:22;;;;;;;14.07;9.35;;;;;;;;;;5011041;28;20412;-53
2023/09/27 09:42:49;;;;;;;12.93;9.48;;;;;;;;;;5012724;28;20037;-54
2023/09/27 09:45:15;;;;;;;13.20;9.30;;;;;;;;;;5010762;28;20033;-53
2023/09/27 09:47:43;;;;;;;16.92;9.70;;;;;;;;;;4990593;28;20046;-53
2023/09/27 09:50:16;;;;;;;15.20;9.52;;;;;;;;;;5008394;28;20033;-54
2023/09/27 09:52:43;;;;;;;16.58;9.45;;;;;;;;;;5012232;28;20037;-53
2023/09/27 09:55:11;;;;;;;12.80;8.32;;;;;;;;;;5008197;28;20025;-53
2023/09/27 09:57:37;;;;;;;10.18;7.97;;;;;;;;;;5010487;28;20152;-52
2023/09/27 10:02:53;;;;;;;19.95;8.57;;;;;;;;;;5013049;28;20066;-52
2023/09/27 10:05:19;;;;;;;11.18;7.45;;;;;;;;;;5009044;28;20041;-52
2023/09/27 10:07:46;;;;;;;20.63;7.55;;;;;;;;;;5014958;28;20037;-54
2023/09/27 10:10:15;;;;;;;10.85;7.10;;;;;;;;;;5024179;28;20087;-54
2023/09/27 10:12:42;;;;;;;9.77;6.40;;;;;;;;;;5023032;28;20441;-54
2023/09/27 10:15:09;;;;;;;13.73;6.80;;;;;;;;;;5021779;28;20053;-54
2023/09/27 10:17:35;;;;;;;12.02;6.68;;;;;;;;;;5024400;28;20034;-54
2023/09/27 10:20:14;;;;;;;12.27;6.32;;;;;;;;;;5026084;28;20091;-52
2023/09/27 10:22:41;;;;;;;9.38;5.95;;;;;;;;;;5018980;28;20043;-53
2023/09/27 10:25:32;;;;;;;11.82;6.63;;;;;;;;;;5011241;28;20053;-53
2023/09/27 10:28:12;;;;;;;13.02;5.50;;;;;;;;;;5009795;28;20441;-53
2023/09/27 10:30:41;;;;;;;13.30;5.65;;;;;;;;;;5023532;28;20037;-53
2023/09/27 10:33:16;;;;;;;11.02;5.78;;;;;;;;;;5027076;28;20037;-54
2023/09/27 10:35:46;;;;;;;6.68;5.20;;;;;;;;;;5023700;28;20120;-54
2023/09/27 10:38:12;;;;;;;8.20;5.43;;;;;;;;;;5026742;28;20748;-54
2023/09/27 10:40:42;;;;;;;11.88;5.55;;;;;;;;;;5000074;28;20068;-54
2023/09/27 10:43:08;;;;;;;10.15;5.07;;;;;;;;;;4988798;28;20248;-54
2023/09/27 10:45:34;;;;;;;11.68;5.07;;;;;;;;;;5000359;28;20099;-54
2023/09/27 10:48:21;;;;;;;10.93;5.55;;;;;;;;;;5006618;28;20453;-53
2023/09/27 10:50:53;;;;;;;7.47;5.13;;;;;;;;;;5001789;28;20378;-53
2023/09/27 10:53:19;;;;;;;11.02;5.15;;;;;;;;;;5001142;28;20092;-53
2023/09/27 10:55:45;;;;;;;11.45;5.15;;;;;;;;;;5006804;28;20041;-52
2023/09/27 10:58:17;;;;;;;13.63;6.13;;;;;;;;;;5007743;28;20034;-54
2023/09/27 11:01:11;;;;;;;10.23;5.43;;;;;;;;;;5004271;28;20038;-52
2023/09/27 11:03:37;;;;;;;10.07;5.70;;;;;;;;;;5001080;28;20111;-54
2023/09/27 11:06:08;;;;;;;8.73;5.18;;;;;;;;;;4993863;28;20092;-51
2023/09/27 11:08:34;;;;;;;12.63;5.40;;;;;;;;;;4997026;28;20041;-52
2023/09/27 11:11:01;;;;;;;11.88;5.68;;;;;;;;;;5014620;28;20053;-53
2023/09/27 11:13:29;;;;;;;11.65;5.43;;;;;;;;;;5025922;28;20425;-53
2023/09/27 11:16:06;;;;;;;11.90;5.20;;;;;;;;;;5025011;28;20082;-54
2023/09/27 11:18:51;;;;;;;7.55;5.38;;;;;;;;;;5015610;28;20500;-53
2023/09/27 11:21:18;;;;;;;8.00;4.90;;;;;;;;;;4997845;28;20033;-53
2023/09/27 11:23:54;;;;;;;9.82;5.65;;;;;;;;;;4982649;28;20052;-53
2023/09/27 11:26:21;;;;;;;11.50;5.68;;;;;;;;;;4996542;28;20038;-54
2023/09/27 11:28:56;;;;;;;10.90;5.75;;;;;;;;;;4997731;28;20399;-53
2023/09/27 11:31:23;;;;;;;8.55;5.25;;;;;;;;;;5021033;28;20091;-53
2023/09/27 11:33:49;;;;;;;10.48;5.65;;;;;;;;;;5012959;28;20061;-53
2023/09/27 11:36:15;;;;;;;8.48;6.07;;;;;;;;;;4992372;28;20136;-54
2023/09/27 11:38:48;;;;;;;35.90;26.85;;;;;;;;;;4981882;28;20475;-53
2023/09/27 11:41:16;;;;;;;12.43;7.35;;;;;;;;;;4991097;28;20317;-53
2023/09/27 11:43:42;;;;;;;8.50;5.57;;;;;;;;;;5009408;28;20460;-54
2023/09/27 11:46:08;;;;;;;8.77;5.38;;;;;;;;;;5021746;28;20052;-54
2023/09/27 11:48:34;;;;;;;8.23;5.45;;;;;;;;;;5021904;28;20515;-54
2023/09/27 11:51:01;;;;;;;11.13;5.60;;;;;;;;;;5022099;28;20040;-53
2023/09/27 11:53:27;;;;;;;7.70;5.10;;;;;;;;;;5012203;28;20408;-54
2023/09/27 11:55:55;;;;;;;9.60;5.47;;;;;;;;;;5012258;28;20029;-54
2023/09/27 11:58:21;;;;;;;9.27;5.13;;;;;;;;;;5009514;28;20136;-54
2023/09/27 12:00:47;;;;;;;5.32;4.43;;;;;;;;;;5011301;28;20112;-53
2023/09/27 12:03:13;;;;;;;7.50;5.00;;;;;;;;;;5009661;28;20060;-54
2023/09/27 12:05:39;;;;;;;7.57;5.05;;;;;;;;;;5011231;28;20428;-54
2023/09/27 12:08:06;;;;;;;7.45;4.60;;;;;;;;;;5009756;28;20253;-53
2023/09/27 12:10:32;;;;;;;8.60;4.40;;;;;;;;;;5010579;28;20040;-54
2023/09/27 12:12:58;;;;;;;7.20;4.63;;;;;;;;;;5010787;28;20574;-53
2023/09/27 12:15:25;;;;;;;11.23;4.22;;;;;;;;;;5009498;28;20161;-54
2023/09/27 12:17:51;;;;;;;7.00;4.65;;;;;;;;;;5013046;28;20037;-53
2023/09/27 12:20:17;;;;;;;7.90;4.65;;;;;;;;;;5005250;28;20397;-53
2023/09/27 12:22:43;;;;;;;8.50;4.00;;;;;;;;;;4998218;28;20719;-54
2023/09/27 12:25:09;;;;;;;5.80;3.80;;;;;;;;;;4990881;28;20030;-54
2023/09/27 12:27:35;;;;;;;6.60;3.72;;;;;;;;;;4992515;28;20029;-54
2023/09/27 12:30:01;;;;;;;11.77;3.80;;;;;;;;;;4989927;28;20049;-54
2023/09/27 12:32:27;;;;;;;7.45;4.28;;;;;;;;;;5008542;28;20742;-54
2023/09/27 12:34:53;;;;;;;7.60;3.80;;;;;;;;;;5012309;28;20344;-53
2023/09/27 12:37:19;;;;;;;9.52;3.90;;;;;;;;;;5013094;28;20091;-54
2023/09/27 12:39:45;;;;;;;6.22;3.70;;;;;;;;;;5011245;28;20041;-54
2023/09/27 12:42:13;;;;;;;6.78;3.67;;;;;;;;;;4988641;28;20060;-54
2023/09/27 12:44:39;;;;;;;6.72;3.90;;;;;;;;;;4986549;28;20120;-53
2023/09/27 12:47:05;;;;;;;8.30;4.22;;;;;;;;;;4988338;28;20401;-54
2023/09/27 12:49:32;;;;;;;6.53;3.70;;;;;;;;;;4995137;28;20050;-54
2023/09/27 12:51:58;;;;;;;7.55;3.22;;;;;;;;;;5001968;28;20998;-53
2023/09/27 12:54:24;;;;;;;9.02;4.03;;;;;;;;;;4994475;28;20053;-55
2023/09/27 12:56:50;;;;;;;10.60;5.18;;;;;;;;;;4992263;28;20037;-54
2023/09/27 12:59:16;;;;;;;82.22;66.82;;;;;;;;;;5005332;28;20476;-55
2023/09/27 13:01:42;;;;;;;11.48;5.60;;;;;;;;;;5004989;28;20176;-54
2023/09/27 13:04:09;;;;;;;8.35;4.28;;;;;;;;;;5007514;28;20041;-55
2023/09/27 13:06:35;;;;;;;8.07;3.83;;;;;;;;;;5025199;28;20658;-54
2023/09/27 13:09:01;;;;;;;7.32;4.15;;;;;;;;;;5025564;28;20396;-55
2023/09/27 13:11:27;;;;;;;7.38;3.88;;;;;;;;;;5025035;28;20056;-55
2023/09/27 13:13:53;;;;;;;8.85;4.22;;;;;;;;;;5017143;28;20045;-55
2023/09/27 13:16:19;;;;;;;8.68;4.35;;;;;;;;;;5014993;28;20102;-54
2023/09/27 13:18:47;;;;;;;8.82;4.10;;;;;;;;;;5029055;28;20409;-53
2023/09/27 13:21:13;;;;;;;6.95;3.95;;;;;;;;;;5025628;28;20037;-54
2023/09/27 13:23:41;;;;;;;8.77;4.10;;;;;;;;;;5026244;28;20042;-55
2023/09/27 13:26:07;;;;;;;7.75;4.32;;;;;;;;;;5024933;28;20539;-54
2023/09/27 13:28:33;;;;;;;8.80;3.70;;;;;;;;;;5028686;28;20508;-53
2023/09/27 13:30:59;;;;;;;7.57;3.53;;;;;;;;;;5025286;28;20075;-52
2023/09/27 13:33:25;;;;;;;6.53;3.63;;;;;;;;;;5013052;28;20537;-54
2023/09/27 13:35:52;;;;;;;7.10;3.63;;;;;;;;;;5015421;28;20064;-54
2023/09/27 13:38:17;;;;;;;7.47;4.10;;;;;;;;;;5008224;28;20041;-52
2023/09/27 13:40:47;;;;;;;7.22;4.05;;;;;;;;;;5015732;28;20043;-54
2023/09/27 13:43:14;;;;;;;10.30;3.95;;;;;;;;;;5014533;28;20037;-54
2023/09/27 13:45:41;;;;;;;6.93;3.97;;;;;;;;;;5023393;28;20091;-55
2023/09/27 13:48:07;;;;;;;9.32;4.30;;;;;;;;;;5012690;28;20029;-54
2023/09/27 13:50:35;;;;;;;5.72;3.75;;;;;;;;;;5013635;28;20048;-54
2023/09/27 13:53:01;;;;;;;9.50;4.32;;;;;;;;;;5012874;28;20038;-54
2023/09/27 13:55:27;;;;;;;7.28;3.72;;;;;;;;;;5008963;28;20253;-54
2023/09/27 13:57:53;;;;;;;8.95;3.90;;;;;;;;;;4993258;28;20038;-54
2023/09/27 14:00:19;;;;;;;8.10;4.03;;;;;;;;;;4993273;28;20029;-53
2023/09/27 14:02:45;;;;;;;5.97;3.47;;;;;;;;;;4996195;28;20037;-54
2023/09/27 14:05:11;;;;;;;7.15;3.67;;;;;;;;;;4992990;28;20885;-54
2023/09/27 14:07:39;;;;;;;5.90;3.72;;;;;;;;;;4994078;28;20033;-53
2023/09/27 14:10:05;;;;;;;8.45;3.88;;;;;;;;;;4991985;28;20289;-54
2023/09/27 14:12:31;;;;;;;9.10;3.50;;;;;;;;;;4993599;28;20046;-53
2023/09/27 14:15:00;;;;;;;8.32;3.70;;;;;;;;;;4994398;28;20092;-54
2023/09/27 14:17:27;;;;;;;7.97;3.58;;;;;;;;;;5014079;28;20128;-54
2023/09/27 14:19:54;;;;;;;4.63;3.38;;;;;;;;;;5012597;28;20508;-55
2023/09/27 14:22:20;;;;;;;4.50;3.28;;;;;;;;;;5005301;28;20052;-55
2023/09/27 14:24:46;;;;;;;6.22;3.30;;;;;;;;;;5000081;28;20026;-53
2023/09/27 14:27:12;;;;;;;11.02;6.63;;;;;;;;;;5001429;28;20022;-52